Time;durP1;ratioP1;P1;durP2;ratioP2;P2;SDS_P1;SDS_P2;PMS_P1;PMS_P2;Temp;Humidity;BMP_temperature;BMP_pressure;BME280_temperature;BME280_humidity;BME280_pressure;Samples;Min_cycle;Max_cycle;Signal;HPM_P1;HPM_P2
2023/06/03 00:02:16;;;;;;;15.88;6.03;;;12.30;99.90;;;-144.05;61.01;56833.97;5072718;28;20196;-77
2023/06/03 00:04:42;;;;;;;17.02;6.25;;;12.20;99.90;;;-144.05;61.54;56855.22;5072893;28;20079;-76
2023/06/03 00:07:09;;;;;;;11.00;5.20;;;12.10;99.90;;;-144.05;61.53;56848.84;5072630;28;20052;-78
2023/06/03 00:09:35;;;;;;;13.73;5.43;;;12.10;99.90;;;-144.05;62.16;56840.34;5072580;28;20036;-78
2023/06/03 00:12:01;;;;;;;15.05;6.35;;;12.10;99.90;;;-144.05;62.28;56850.97;5072097;28;20465;-78
2023/06/03 00:14:26;;;;;;;12.52;5.95;;;12.00;99.90;;;-144.05;62.60;56838.22;5072584;28;20059;-77
2023/06/03 00:16:52;;;;;;;12.13;5.55;;;12.00;99.90;;;-144.05;62.40;56842.47;5072736;28;20033;-78
2023/06/03 00:19:18;;;;;;;14.07;6.28;;;12.00;99.90;;;-144.05;62.50;56838.22;5072422;28;20074;-78
2023/06/03 00:21:49;;;;;;;14.35;5.68;;;11.90;99.90;;;-144.05;62.43;56838.22;5076034;28;20161;-81
2023/06/03 00:24:19;;;;;;;15.30;6.60;;;11.90;99.90;;;-144.05;62.63;56859.47;5062649;28;20050;-81
2023/06/03 00:26:45;;;;;;;13.80;5.75;;;11.90;99.90;;;-144.05;63.26;56840.34;5078704;28;20028;-79
2023/06/03 00:29:11;;;;;;;14.88;6.00;;;11.90;99.90;;;-144.05;63.18;56840.34;5078865;28;20059;-80
2023/06/03 00:31:37;;;;;;;14.40;5.85;;;11.90;99.90;;;-144.05;63.36;56844.59;5060812;28;20028;-80
2023/06/03 00:34:03;;;;;;;14.70;5.93;;;11.90;99.90;;;-144.05;63.28;56825.47;5077792;28;20394;-81
2023/06/03 00:36:29;;;;;;;12.70;5.72;;;11.90;99.90;;;-144.05;63.10;56836.09;5078141;28;20020;-79
2023/06/03 00:38:55;;;;;;;13.45;5.85;;;11.90;99.90;;;-144.05;63.07;56833.97;5077559;28;20078;-79
2023/06/03 00:41:20;;;;;;;13.73;5.30;;;11.90;99.90;;;-144.05;63.14;56840.34;5077651;28;20029;-78
2023/06/03 00:43:46;;;;;;;14.32;6.20;;;11.90;99.90;;;-144.05;62.99;56844.59;5077971;28;20028;-81
2023/06/03 00:46:16;;;;;;;15.63;6.18;;;11.80;99.90;;;-144.05;63.12;56829.72;5078163;28;20037;-79
2023/06/03 00:48:43;;;;;;;11.77;6.00;;;11.70;99.90;;;-144.05;63.60;56844.59;5077018;28;20027;-77
2023/06/03 00:51:09;;;;;;;14.95;6.22;;;11.70;99.90;;;-144.05;64.19;56823.34;5059147;28;20497;-81
2023/06/03 00:53:35;;;;;;;19.35;6.53;;;11.70;99.90;;;-144.05;63.88;56853.09;5077433;28;20115;-81
2023/06/03 00:56:02;;;;;;;13.57;5.82;;;11.70;99.90;;;-144.05;64.06;56850.97;5075461;28;20112;-80
2023/06/03 00:58:28;;;;;;;16.50;6.07;;;11.70;99.90;;;-144.05;63.63;56840.34;5076575;28;20028;-80
2023/06/03 01:00:55;;;;;;;13.13;5.63;;;11.70;99.90;;;-144.05;63.68;56853.09;5076114;28;20089;-79
2023/06/03 01:03:21;;;;;;;11.65;5.28;;;11.60;99.90;;;-144.05;64.28;56831.84;5075687;28;20020;-77
2023/06/03 01:06:14;;;;;;;14.18;5.50;;;11.60;99.90;;;-144.05;64.33;56831.84;5074117;28;20158;-78
2023/06/03 01:09:12;;;;;;;10.73;5.63;;;11.50;99.90;;;-144.05;64.61;56838.22;5056278;28;20040;-79
2023/06/03 01:11:57;;;;;;;11.18;5.78;;;11.40;99.90;;;-144.05;64.80;56833.97;5075118;28;20119;-78
2023/06/03 01:14:39;;;;;;;9.77;5.60;;;11.40;99.90;;;-144.05;65.23;56842.47;5076358;28;20064;-81
2023/06/03 01:17:10;;;;;;;12.60;5.65;;;11.40;99.90;;;-144.05;65.40;56846.72;5057748;28;20021;-78
2023/06/03 01:19:50;;;;;;;13.25;6.43;;;11.30;99.90;;;-144.05;65.94;56806.34;5056855;28;20127;-76
2023/06/03 01:22:24;;;;;;;18.90;7.75;;;11.20;99.90;;;-144.05;66.24;56836.09;5075450;28;20056;-78
2023/06/03 01:25:11;;;;;;;10.35;6.30;;;11.30;99.90;;;-144.05;65.92;56848.84;5057677;28;20090;-78
2023/06/03 01:27:39;;;;;;;19.40;6.90;;;11.30;99.90;;;-144.05;65.55;56836.09;5057309;28;20025;-78
2023/06/03 01:30:12;;;;;;;16.50;7.50;;;11.30;99.90;;;-144.05;65.89;56863.69;5074134;28;20029;-78
2023/06/03 01:32:41;;;;;;;14.00;6.55;;;11.30;99.90;;;-144.05;65.83;56861.56;5075786;28;20040;-78
2023/06/03 01:35:10;;;;;;;12.65;6.47;;;11.20;99.90;;;-144.05;66.14;56831.84;5075570;28;20036;-78
2023/06/03 01:37:39;;;;;;;15.05;7.28;;;11.20;99.90;;;-144.05;66.29;56831.84;5074724;28;20080;-80
2023/06/03 01:40:09;;;;;;;18.80;7.53;;;11.20;99.90;;;-144.05;66.35;56853.09;5078429;28;20029;-81
2023/06/03 01:42:37;;;;;;;19.35;8.68;;;11.20;99.90;;;-144.05;66.89;56848.84;5059805;28;20552;-78
2023/06/03 01:45:04;;;;;;;19.27;7.72;;;11.10;99.90;;;-144.05;66.84;56816.97;5078010;28;20393;-81
2023/06/03 01:47:32;;;;;;;16.88;8.02;;;11.20;99.90;;;-144.05;66.50;56844.59;5077476;28;20037;-81
2023/06/03 01:49:58;;;;;;;13.65;7.15;;;11.20;99.90;;;-144.05;66.60;56844.59;5077901;28;20032;-79
2023/06/03 01:52:23;;;;;;;14.10;7.20;;;11.20;99.90;;;-144.05;66.67;56857.34;5059115;28;20203;-80
2023/06/03 01:54:49;;;;;;;16.55;7.88;;;11.10;99.90;;;-144.05;66.65;56857.34;5059437;28;20373;-79
2023/06/03 01:57:16;;;;;;;12.30;6.55;;;11.00;99.90;;;-144.05;67.31;56840.34;5058947;28;20029;-80
2023/06/03 01:59:42;;;;;;;14.45;7.50;;;11.00;99.90;;;-144.05;66.95;56831.84;5077532;28;20025;-77
2023/06/03 02:02:08;;;;;;;14.27;7.88;;;11.00;99.90;;;-144.05;67.49;56859.47;5059351;28;20032;-81
2023/06/03 02:04:33;;;;;;;15.30;7.50;;;11.00;99.90;;;-144.05;67.73;56861.56;5076655;28;20058;-80
2023/06/03 02:07:00;;;;;;;17.45;7.78;;;10.90;99.90;;;-144.05;67.53;56831.84;5076827;28;20029;-78
2023/06/03 02:09:28;;;;;;;16.80;7.55;;;10.90;99.90;;;-144.05;67.93;56836.09;5076834;28;20219;-79
2023/06/03 02:11:57;;;;;;;13.70;6.97;;;10.90;99.90;;;-144.05;67.50;56831.84;5079816;28;20032;-79
2023/06/03 02:14:26;;;;;;;20.27;7.50;;;10.90;99.90;;;-144.05;67.85;56831.84;5060896;28;20028;-78
2023/06/03 02:16:55;;;;;;;12.75;6.95;;;10.80;99.90;;;-144.05;68.08;56859.47;5079384;28;20390;-78
2023/06/03 02:19:28;;;;;;;16.25;7.40;;;10.80;99.90;;;-144.05;67.49;56838.22;5061567;28;20036;-77
2023/06/03 02:21:58;;;;;;;12.93;7.40;;;10.80;99.90;;;-144.05;67.51;56846.72;5060643;28;20034;-80
2023/06/03 02:24:28;;;;;;;15.43;7.38;;;10.80;99.90;;;-144.05;68.04;56846.72;5060750;28;20429;-81
2023/06/03 02:26:56;;;;;;;12.90;6.75;;;10.70;99.90;;;-144.05;68.18;56827.59;5061840;28;20035;-79
2023/06/03 02:29:27;;;;;;;12.40;6.25;;;10.70;99.90;;;-144.05;68.61;56836.09;5080714;28;20036;-78
2023/06/03 02:31:55;;;;;;;12.23;6.07;;;10.70;99.90;;;-144.05;68.21;56853.09;5080963;28;20032;-78
2023/06/03 02:34:22;;;;;;;11.38;7.05;;;10.70;99.90;;;-144.05;67.86;56863.69;5079923;28;20050;-78
2023/06/03 02:36:49;;;;;;;13.20;6.70;;;10.60;99.90;;;-144.05;67.86;56865.81;5061510;28;20024;-78
2023/06/03 02:39:16;;;;;;;14.00;6.30;;;10.60;99.90;;;-144.05;67.95;56838.22;5061050;28;20028;-78
2023/06/03 02:41:46;;;;;;;11.93;6.35;;;10.60;99.90;;;-144.05;67.78;56853.09;5060766;28;20088;-78
2023/06/03 02:44:14;;;;;;;15.23;6.00;;;10.60;99.90;;;-144.05;68.16;56842.47;5079399;28;20024;-79
2023/06/03 02:46:40;;;;;;;13.50;6.85;;;10.50;99.90;;;-144.05;67.38;56867.94;5079192;28;20033;-79
2023/06/03 02:49:09;;;;;;;9.40;5.90;;;10.50;99.90;;;-144.05;67.43;56842.47;5059974;28;20029;-78
2023/06/03 02:51:36;;;;;;;13.43;6.07;;;10.40;99.90;;;-144.05;67.52;56853.09;5078644;28;20109;-77
2023/06/03 02:54:03;;;;;;;10.65;5.78;;;10.40;99.90;;;-144.05;67.24;56844.59;5077348;28;20021;-80
2023/06/03 02:56:29;;;;;;;13.38;6.13;;;10.40;99.90;;;-144.05;67.04;56850.97;5079708;28;20040;-80
2023/06/03 02:58:54;;;;;;;13.02;5.80;;;10.40;99.90;;;-144.05;66.63;56887.06;5059284;28;20032;-80
2023/06/03 03:01:22;;;;;;;10.70;6.43;;;10.40;99.90;;;-144.05;66.65;56842.47;5076379;28;20087;-79
2023/06/03 03:03:48;;;;;;;12.73;5.78;;;10.30;99.90;;;-144.05;66.08;56848.84;5076533;28;20016;-77
2023/06/03 03:06:15;;;;;;;13.07;6.13;;;10.40;99.90;;;-144.05;66.50;56812.72;5075313;28;20063;-79
2023/06/03 03:08:42;;;;;;;10.88;5.18;;;10.30;99.90;;;-144.05;66.00;56829.72;5074798;28;20094;-78
2023/06/03 03:11:13;;;;;;;14.75;5.05;;;10.30;99.90;;;-144.05;65.78;56867.94;5057101;28;20139;-78
2023/06/03 03:13:39;;;;;;;9.65;5.15;;;10.30;99.90;;;-144.05;65.87;56870.06;5075493;28;20111;-77
2023/06/03 03:16:05;;;;;;;11.15;6.07;;;10.30;99.90;;;-144.05;65.40;56846.72;5074967;28;20021;-79
2023/06/03 03:18:31;;;;;;;10.43;5.22;;;10.30;99.90;;;-144.05;65.41;56823.34;5057217;28;20078;-76
2023/06/03 03:20:57;;;;;;;12.30;5.45;;;10.20;99.90;;;-144.05;65.33;56853.09;5057137;28;20031;-77
2023/06/03 03:23:25;;;;;;;10.88;4.82;;;10.20;99.90;;;-144.05;65.16;56840.34;5074755;28;20028;-78
2023/06/03 03:25:51;;;;;;;10.00;5.30;;;10.20;99.90;;;-144.05;65.33;56827.59;5075637;28;20029;-76
2023/06/03 03:28:17;;;;;;;10.80;5.07;;;10.20;99.90;;;-144.05;65.46;56840.34;5076150;28;20028;-78
2023/06/03 03:30:46;;;;;;;11.65;5.00;;;10.10;99.90;;;-144.05;65.21;56814.84;5074843;28;20409;-80
2023/06/03 03:33:15;;;;;;;9.98;4.93;;;10.10;99.90;;;-144.05;64.50;56850.97;5075753;28;20031;-78
2023/06/03 03:35:43;;;;;;;11.75;4.90;;;10.10;99.90;;;-144.05;64.33;56846.72;5057469;28;20066;-76
2023/06/03 03:38:10;;;;;;;7.43;4.53;;;10.10;99.90;;;-144.05;64.36;56859.47;5057614;28;20265;-76
2023/06/03 03:40:38;;;;;;;8.13;4.63;;;10.00;99.90;;;-144.05;64.52;56859.47;5074410;28;20374;-78
2023/06/03 03:43:16;;;;;;;9.57;4.93;;;10.00;99.90;;;-144.05;64.40;56829.72;5075792;28;20481;-78
2023/06/03 03:45:42;;;;;;;7.78;4.25;;;10.00;99.90;;;-144.05;64.08;56848.84;5074117;28;20436;-77
2023/06/03 03:48:16;;;;;;;9.63;4.40;;;9.90;99.90;;;-144.05;63.93;56853.09;5074905;28;20051;-78
2023/06/03 03:50:52;;;;;;;12.80;5.47;;;10.00;99.90;;;-144.05;63.73;56842.47;5075195;28;20079;-76
2023/06/03 03:53:35;;;;;;;12.90;4.78;;;10.00;99.90;;;-144.05;63.25;56848.84;5074730;28;20116;-78
2023/06/03 03:56:01;;;;;;;10.48;4.90;;;10.00;99.90;;;-144.05;62.91;56840.34;5074943;28;20447;-77
2023/06/03 03:58:43;;;;;;;7.80;4.65;;;10.00;99.90;;;-144.05;63.31;56840.34;5073981;28;20050;-74
2023/06/03 04:01:17;;;;;;;9.80;5.10;;;10.00;99.90;;;-144.05;62.47;56859.47;5074273;28;20107;-78
2023/06/03 04:03:48;;;;;;;7.30;4.22;;;10.00;99.90;;;-144.05;62.89;56853.09;5056243;28;20031;-78
2023/06/03 04:06:36;;;;;;;13.00;5.00;;;10.00;99.90;;;-144.05;63.21;56833.97;5055151;28;20036;-78
2023/06/03 04:09:10;;;;;;;7.72;4.43;;;10.00;99.90;;;-144.05;63.14;56857.34;5055087;28;20032;-77
2023/06/03 04:11:44;;;;;;;10.60;4.70;;;9.90;99.90;;;-144.05;63.35;56857.34;5069112;22;20032;-82
2023/06/03 04:14:15;;;;;;;6.40;4.15;;;9.90;99.90;;;-144.05;62.93;56853.09;5074350;28;20032;-83
2023/06/03 04:16:54;;;;;;;10.30;4.63;;;10.00;99.90;;;-144.05;62.65;56863.69;5074069;28;20024;-82
2023/06/03 04:19:30;;;;;;;7.35;4.68;;;10.00;99.90;;;-144.05;62.37;56821.22;5073849;28;20477;-82
2023/06/03 04:22:01;;;;;;;8.82;4.10;;;10.00;99.90;;;-144.05;62.14;56850.97;5073816;28;20149;-82
2023/06/03 04:24:28;;;;;;;7.53;5.03;;;10.10;99.90;;;-144.05;61.84;56836.09;5074565;28;20026;-84
2023/06/03 04:26:54;;;;;;;8.20;4.53;;;10.10;99.90;;;-144.05;61.65;56853.09;5073667;28;20116;-82
2023/06/03 04:29:21;;;;;;;10.18;3.95;;;10.10;99.90;;;-144.05;61.13;56853.09;5073585;28;20123;-83
2023/06/03 04:31:47;;;;;;;10.80;4.47;;;10.10;99.90;;;-144.05;60.69;56840.34;5073543;28;20082;-84
2023/06/03 04:34:13;;;;;;;10.40;3.58;;;10.20;99.90;;;-144.05;59.58;56838.22;5091253;28;20028;-84
2023/06/03 04:36:39;;;;;;;10.55;4.18;;;10.30;99.90;;;-144.05;59.01;56865.81;5073504;28;20082;-82
2023/06/03 04:39:05;;;;;;;4.90;3.17;;;10.40;99.90;;;-144.05;58.06;56840.34;5073557;28;20036;-82
2023/06/03 04:41:32;;;;;;;6.65;3.60;;;10.60;99.90;;;-144.05;57.15;56867.94;5091680;28;20028;-82
2023/06/03 04:44:01;;;;;;;6.88;3.10;;;10.60;99.90;;;-144.05;56.90;56836.09;5073647;28;20115;-84
2023/06/03 04:46:31;;;;;;;6.30;3.22;;;10.70;99.90;;;-144.05;55.79;56844.59;5091857;28;20024;-84
2023/06/03 04:49:01;;;;;;;6.20;3.08;;;10.80;99.90;;;-144.05;54.71;56857.34;5073762;28;20028;-83
2023/06/03 04:51:33;;;;;;;10.10;3.67;;;10.90;99.90;;;-144.05;54.24;56816.97;5092348;28;20103;-82
2023/06/03 04:54:00;;;;;;;5.50;2.50;;;11.00;99.90;;;-144.05;53.53;56870.06;5076928;28;20154;-81
2023/06/03 04:56:29;;;;;;;4.40;2.42;;;11.10;99.90;;;-144.05;52.14;56831.84;5098416;28;20020;-79
2023/06/03 04:58:57;;;;;;;5.03;2.38;;;11.20;99.90;;;-144.05;51.57;56853.09;5081413;28;20028;-83
2023/06/03 05:01:25;;;;;;;5.13;3.00;;;11.30;99.90;;;-144.05;51.44;56827.59;5076522;28;20475;-86
2023/06/03 05:03:55;;;;;;;4.95;2.30;;;11.40;99.90;;;-144.05;50.25;56846.72;5076658;28;20126;-84
2023/06/03 05:06:21;;;;;;;5.47;2.58;;;11.50;99.90;;;-144.05;49.84;56848.84;5075941;28;20054;-82
2023/06/03 05:08:49;;;;;;;10.25;2.58;;;11.60;99.90;;;-144.05;49.20;56844.59;5093859;28;20497;-85
2023/06/03 05:11:17;;;;;;;7.72;2.35;;;11.70;99.90;;;-144.05;49.37;56831.84;5075660;28;20020;-81
2023/06/03 05:13:44;;;;;;;3.83;2.40;;;11.90;99.90;;;-144.05;48.76;56829.72;5075925;28;20024;-84
2023/06/03 05:16:11;;;;;;;4.22;2.92;;;12.10;99.90;;;-144.05;47.54;56836.09;5075686;28;20462;-85
2023/06/03 05:18:39;;;;;;;4.82;2.13;;;12.20;99.90;;;-144.05;46.81;56838.22;5076181;28;20028;-87
2023/06/03 05:21:06;;;;;;;4.05;2.00;;;12.40;99.90;;;-144.05;45.74;56825.47;5075671;28;20043;-86
2023/06/03 05:23:32;;;;;;;4.60;2.10;;;12.50;99.90;;;-144.05;45.29;56836.09;5094043;28;20024;-84
2023/06/03 05:25:58;;;;;;;4.72;1.88;;;12.50;99.90;;;-144.05;45.44;56850.97;5075864;28;20028;-84
2023/06/03 05:28:25;;;;;;;4.25;2.17;;;12.50;99.90;;;-144.05;45.06;56842.47;5076173;28;20024;-86
2023/06/03 05:30:51;;;;;;;5.72;2.42;;;12.70;99.90;;;-144.05;44.91;56833.97;5076481;28;20039;-84
2023/06/03 05:33:32;;;;;;;5.28;2.40;;;12.80;99.90;;;-144.05;44.50;56827.59;5076058;28;20020;-83
2023/06/03 05:35:58;;;;;;;3.10;1.92;;;13.00;99.90;;;-144.05;43.46;56848.84;5076427;28;20062;-86
2023/06/03 05:38:25;;;;;;;5.68;2.40;;;13.10;99.90;;;-144.05;43.84;56831.84;5076696;28;20024;-85
2023/06/03 05:40:52;;;;;;;6.78;2.08;;;13.10;99.90;;;-144.05;44.06;56846.72;5076103;28;20028;-85
2023/06/03 05:43:19;;;;;;;4.10;1.85;;;13.00;99.90;;;-144.05;43.37;56827.59;5093634;28;20493;-87
2023/06/03 05:45:46;;;;;;;4.25;1.90;;;13.10;99.90;;;-144.05;42.55;56857.34;5097252;28;20115;-86
2023/06/03 05:48:12;;;;;;;2.85;1.50;;;13.30;99.90;;;-144.05;41.97;56846.72;5080639;28;20035;-86
2023/06/03 05:50:54;;;;;;;4.60;1.80;;;13.40;99.90;;;-144.05;41.88;56853.09;5080015;28;20073;-85
2023/06/03 05:53:25;;;;;;;2.28;1.70;;;13.50;99.90;;;-144.05;41.62;56827.59;5079380;28;20489;-86
2023/06/03 05:55:52;;;;;;;6.28;1.98;;;13.60;99.90;;;-144.05;41.60;56840.34;5097581;28;20028;-85
2023/06/03 05:58:21;;;;;;;3.42;1.50;;;13.50;99.90;;;-144.05;41.25;56857.34;5079255;28;20024;-86
2023/06/03 06:00:48;;;;;;;4.70;1.75;;;13.70;99.90;;;-144.05;40.73;56850.97;5079313;28;20482;-84
2023/06/03 06:03:15;;;;;;;4.22;1.30;;;13.80;99.90;;;-144.05;40.35;56825.47;5079182;28;20028;-85
2023/06/03 06:05:41;;;;;;;2.42;1.30;;;14.10;99.90;;;-144.05;40.03;56838.22;5098182;28;20028;-82
2023/06/03 06:08:07;;;;;;;5.63;1.70;;;14.20;99.90;;;-144.05;39.57;56842.47;5097566;28;20032;-83
2023/06/03 06:10:34;;;;;;;4.30;1.15;;;14.30;99.90;;;-144.05;39.48;56833.97;5079632;28;20038;-84
2023/06/03 06:12:59;;;;;;;2.00;1.23;;;14.10;99.90;;;-144.05;38.91;56827.59;5079995;28;20036;-84
2023/06/03 06:15:31;;;;;;;4.88;1.50;;;14.30;99.90;;;-144.05;38.60;56833.97;5080075;28;20102;-81
2023/06/03 06:17:57;;;;;;;5.03;1.38;;;14.30;99.90;;;-144.05;38.39;56846.72;5079854;28;20028;-82
2023/06/03 06:20:23;;;;;;;4.78;1.30;;;14.40;99.90;;;-144.05;38.07;56848.84;5080180;28;20489;-85
2023/06/03 06:22:49;;;;;;;4.65;1.58;;;14.50;99.90;;;-144.05;37.40;56825.47;5079869;28;20236;-87
2023/06/03 06:25:15;;;;;;;3.13;1.20;;;14.70;99.90;;;-144.05;37.25;56840.34;5080138;28;20039;-88
2023/06/03 06:27:42;;;;;;;2.08;1.02;;;15.00;99.90;;;-144.05;36.59;56853.09;5094020;28;20022;-85
2023/06/03 06:30:08;;;;;;;2.03;1.30;;;15.20;99.90;;;-144.05;36.83;56844.59;5094774;28;20043;-85
2023/06/03 06:32:52;;;;;;;2.17;1.40;;;15.40;99.90;;;-144.05;36.73;56840.34;5110605;28;20042;-86
2023/06/03 06:35:19;;;;;;;2.63;0.98;;;15.50;99.90;;;-144.05;36.24;56850.97;5111368;28;20028;-83
2023/06/03 06:37:47;;;;;;;5.70;1.30;;;15.70;99.90;;;-144.05;35.44;56850.97;5099692;28;20089;-83
2023/06/03 06:40:19;;;;;;;2.65;1.13;;;16.00;99.90;;;-144.05;34.87;56831.84;5098089;28;20020;-83
2023/06/03 06:42:45;;;;;;;3.15;1.40;;;16.10;98.80;;;-144.05;34.91;56853.09;5097559;28;20027;-83
2023/06/03 06:45:23;;;;;;;2.88;1.20;;;16.30;98.40;;;-144.05;34.88;56836.09;5078369;28;20118;-86
2023/06/03 06:48:10;;;;;;;3.00;1.10;;;16.10;97.00;;;-144.05;35.21;56853.09;5078262;28;20483;-85
2023/06/03 06:50:54;;;;;;;3.28;1.20;;;16.00;97.20;;;-144.05;34.67;56836.09;5096372;28;20028;-86
2023/06/03 06:53:23;;;;;;;1.85;1.08;;;16.30;97.00;;;-144.05;34.21;56825.47;5096112;28;20055;-77
2023/06/03 06:55:56;;;;;;;2.67;1.17;;;16.60;96.10;;;-144.05;33.33;56836.09;5087278;28;20044;-86
2023/06/03 06:58:30;;;;;;;2.05;0.98;;;17.00;94.90;;;-144.05;32.82;56838.22;5077514;28;20024;-85
2023/06/03 07:00:58;;;;;;;2.10;1.20;;;17.10;93.30;;;-144.05;32.87;56857.34;5078672;28;20038;-84
2023/06/03 07:03:24;;;;;;;5.13;0.90;;;17.20;93.00;;;-144.05;32.96;56840.34;5079376;28;20119;-86
2023/06/03 07:05:53;;;;;;;1.80;0.98;;;17.40;92.40;;;-144.05;32.54;56855.22;5079159;28;20051;-83
2023/06/03 07:08:24;;;;;;;3.55;0.90;;;17.40;91.80;;;-144.05;32.74;56840.34;5079328;28;20047;-85
2023/06/03 07:10:55;;;;;;;3.35;1.23;;;17.70;91.90;;;-144.05;32.59;56850.97;5079630;28;20024;-84
2023/06/03 07:13:21;;;;;;;2.45;1.20;;;18.20;91.40;;;-144.05;31.72;56884.94;5078803;28;20058;-82
2023/06/03 07:15:47;;;;;;;3.25;1.10;;;18.30;90.10;;;-144.05;31.77;56848.84;5078781;28;20135;-82
2023/06/03 07:18:13;;;;;;;3.58;1.15;;;18.30;89.10;;;-144.05;31.54;56880.69;5079380;28;20061;-83
2023/06/03 07:20:43;;;;;;;2.28;0.90;;;18.50;88.80;;;-144.05;30.85;56870.06;5079357;28;20591;-84
2023/06/03 07:23:22;;;;;;;2.45;0.80;;;18.50;84.50;;;-144.05;31.62;56867.94;5096273;28;20527;-82
2023/06/03 07:25:52;;;;;;;2.38;0.70;;;18.20;86.00;;;-144.05;31.57;56857.34;5079249;28;20032;-85
2023/06/03 07:28:28;;;;;;;1.50;0.70;;;18.20;84.30;;;-144.05;31.66;56857.34;5079600;28;20039;-83
2023/06/03 07:30:54;;;;;;;4.40;1.02;;;18.30;85.10;;;-144.05;31.08;56878.56;5079564;28;20035;-85
2023/06/03 07:33:37;;;;;;;3.58;1.02;;;18.50;82.70;;;-144.05;31.09;56870.06;5096885;28;20028;-86
2023/06/03 07:36:04;;;;;;;3.40;1.02;;;18.90;84.40;;;-144.05;30.37;56904.06;5096954;28;20230;-87
2023/06/03 07:39:08;;;;;;;4.30;0.63;;;19.20;80.50;;;-144.05;30.42;56853.09;5078024;28;20024;-85
2023/06/03 07:41:44;;;;;;;4.68;0.95;;;18.90;79.90;;;-144.05;30.61;56872.19;5077654;28;20481;-81
2023/06/03 07:44:18;;;;;;;2.92;1.05;;;18.70;80.60;;;-144.05;30.33;56861.56;5077914;28;20024;-87
2023/06/03 07:46:54;;;;;;;3.70;1.20;;;18.50;77.70;;;-144.05;30.46;56865.81;5080362;28;20123;-87
2023/06/03 07:49:24;;;;;;;4.32;1.10;;;18.80;79.60;;;-144.05;30.40;56887.06;5079942;28;20195;-83
2023/06/03 07:51:55;;;;;;;3.83;1.00;;;19.00;78.40;;;-144.05;30.55;56889.19;5079719;28;20030;-87
2023/06/03 07:54:24;;;;;;;2.13;1.10;;;19.10;79.50;;;-144.05;30.47;56876.44;5081734;28;20051;-90
2023/06/03 07:57:07;;;;;;;;;;;;;;;;;;;;;
2023/06/03 07:59:56;;;;;;;4.10;1.10;;;19.20;75.70;;;-144.05;29.72;56872.19;5103132;28;20072;-89
2023/06/03 08:02:22;;;;;;;3.70;0.95;;;19.10;75.50;;;-144.05;29.97;56880.69;5084399;28;20032;-86
2023/06/03 08:04:52;;;;;;;4.68;1.00;;;19.40;76.40;;;-144.05;29.63;56897.69;5100237;28;20053;-86
2023/06/03 08:07:21;;;;;;;2.10;1.00;;;19.60;75.60;;;-144.05;29.27;56874.31;5098770;28;20044;-89
2023/06/03 08:09:47;;;;;;;4.47;1.17;;;19.90;74.40;;;-144.05;29.06;56895.56;5081189;28;20044;-87
2023/06/03 08:12:14;;;;;;;1.80;0.90;;;20.00;72.70;;;-144.05;28.99;56906.19;5082840;28;20043;-90
2023/06/03 08:14:40;;;;;;;2.55;1.08;;;20.20;73.50;;;-144.05;28.61;56897.69;5081621;28;20024;-87
2023/06/03 08:17:13;;;;;;;3.10;1.00;;;20.30;70.80;;;-144.05;28.47;56901.94;5081051;28;20120;-87
2023/06/03 08:19:45;;;;;;;4.60;1.00;;;20.20;70.60;;;-144.05;28.39;56897.69;5082570;28;20316;-90
2023/06/03 08:22:35;;;;;;;4.90;1.05;;;20.60;71.30;;;-144.05;28.26;56897.69;5081493;28;20100;-87
2023/06/03 08:25:02;;;;;;;3.45;1.00;;;20.70;69.30;;;-144.05;28.57;56916.81;5080897;28;20028;-89
2023/06/03 08:27:35;;;;;;;3.78;1.25;;;20.30;69.20;;;-144.05;28.76;56901.94;5097987;28;20078;-87
2023/06/03 08:30:05;;;;;;;3.75;1.00;;;20.40;70.90;;;-144.05;28.52;56901.94;5080394;28;20095;-85
2023/06/03 08:32:38;;;;;;;3.72;1.20;;;20.60;69.90;;;-144.05;28.07;56906.19;5078411;28;20024;-86
2023/06/03 08:35:05;;;;;;;4.03;1.30;;;20.70;68.80;;;-144.05;28.27;56904.06;5079064;28;20024;-83
2023/06/03 08:37:33;;;;;;;4.95;1.27;;;20.60;68.30;;;-144.05;28.77;56901.94;5078979;28;20113;-84
2023/06/03 08:40:05;;;;;;;2.80;1.00;;;20.50;70.00;;;-144.05;27.98;56916.81;5078600;28;20028;-84
2023/06/03 08:42:45;;;;;;;2.72;1.05;;;20.60;67.40;;;-144.05;28.47;56908.31;5078131;28;20032;-85
2023/06/03 08:45:17;;;;;;;2.95;1.05;;;20.80;69.00;;;-144.05;27.96;56889.19;5077304;28;20040;-85
2023/06/03 08:48:21;;;;;;;8.40;1.20;;;20.80;67.90;;;-144.05;28.75;56897.69;5077456;28;20039;-87
2023/06/03 08:50:51;;;;;;;2.70;1.23;;;20.90;69.40;;;-144.05;28.51;56914.69;5092597;28;20020;-82
2023/06/03 08:53:19;;;;;;;4.72;1.20;;;20.70;67.90;;;-144.05;28.33;56914.69;5087687;28;20036;-86
2023/06/03 08:55:51;;;;;;;1.33;0.98;;;21.00;68.50;;;-144.05;28.12;56908.31;5096262;28;20023;-87
2023/06/03 08:58:32;;;;;;;2.13;0.80;;;20.90;66.80;;;-144.05;27.90;56916.81;5078679;28;20024;-82
2023/06/03 09:01:02;;;;;;;4.18;1.10;;;21.20;66.50;;;-144.05;28.01;56921.06;5096264;28;20477;-85
2023/06/03 09:03:32;;;;;;;2.95;1.20;;;21.30;66.60;;;-144.05;27.98;56921.06;5077853;28;20028;-84
2023/06/03 09:06:00;;;;;;;3.17;1.30;;;21.40;66.20;;;-144.05;27.17;56938.03;5077635;28;20060;-85
2023/06/03 09:08:27;;;;;;;2.63;1.20;;;21.30;63.80;;;-144.05;28.49;56918.94;5076986;28;20115;-85
2023/06/03 09:10:56;;;;;;;2.47;1.23;;;21.20;68.90;;;-144.05;27.54;56910.44;5078047;28;20035;-82
2023/06/03 09:13:23;;;;;;;3.47;1.30;;;21.30;65.50;;;-144.05;27.78;56912.56;5078142;28;20036;-84
2023/06/03 09:15:51;;;;;;;9.27;1.50;;;21.30;65.10;;;-144.05;27.46;56921.06;5078301;28;20051;-86
2023/06/03 09:18:18;;;;;;;4.95;1.40;;;21.20;65.00;;;-144.05;27.81;56931.66;5078279;28;20043;-85
2023/06/03 09:20:44;;;;;;;3.78;0.90;;;21.40;65.00;;;-144.05;27.84;56927.41;5078546;28;20143;-83
2023/06/03 09:23:12;;;;;;;3.10;1.05;;;21.30;64.90;;;-144.05;27.83;56918.94;5100447;28;20095;-86
2023/06/03 09:25:39;;;;;;;3.65;0.95;;;21.30;64.60;;;-144.05;27.86;56895.56;5082375;28;20028;-85
2023/06/03 09:28:05;;;;;;;5.20;1.20;;;21.50;65.20;;;-144.05;27.44;56904.06;5081581;28;20541;-83
2023/06/03 09:30:35;;;;;;;2.60;1.10;;;21.40;63.10;;;-144.05;27.68;56918.94;5099258;28;20039;-82
2023/06/03 09:33:01;;;;;;;1.27;0.80;;;21.60;64.30;;;-144.05;27.30;56916.81;5081166;28;20031;-87
2023/06/03 09:35:27;;;;;;;3.88;0.90;;;21.80;63.20;;;-144.05;26.87;56927.41;5100133;28;20031;-84
2023/06/03 09:38:04;;;;;;;2.35;1.10;;;21.80;61.70;;;-144.05;27.06;56946.53;5100304;28;20023;-85
2023/06/03 09:40:33;;;;;;;6.38;1.13;;;21.70;61.70;;;-144.05;27.32;56914.69;5099830;28;20027;-85
2023/06/03 09:43:00;;;;;;;2.95;0.75;;;21.30;63.00;;;-144.05;27.15;56916.81;5099209;28;20165;-86
2023/06/03 09:45:35;;;;;;;6.40;1.63;;;21.40;61.70;;;-144.05;27.08;56899.81;5099573;28;20024;-86
2023/06/03 09:48:02;;;;;;;4.65;1.30;;;21.70;61.90;;;-144.05;26.54;56935.91;5080917;28;20054;-83
2023/06/03 09:50:32;;;;;;;2.25;1.10;;;21.90;60.00;;;-144.05;27.13;56933.78;5081676;28;20074;-87
2023/06/03 09:53:00;;;;;;;2.08;0.90;;;21.50;61.10;;;-144.05;27.35;56910.44;5081836;28;20373;-87
2023/06/03 09:55:33;;;;;;;5.07;1.02;;;21.80;62.30;;;-144.05;27.02;56912.56;5081811;28;20135;-85
2023/06/03 09:58:09;;;;;;;8.05;1.88;;;21.90;61.20;;;-144.05;26.32;56933.78;5099440;28;20027;-84
2023/06/03 10:00:51;;;;;;;1.65;0.90;;;22.10;59.30;;;-144.05;25.55;56940.16;5081537;28;20038;-82
2023/06/03 10:03:23;;;;;;;2.08;1.20;;;22.00;57.20;;;-144.05;26.43;56889.19;5081294;28;20027;-86
2023/06/03 10:05:49;;;;;;;2.00;1.08;;;21.70;58.30;;;-144.05;26.26;56935.91;5081405;28;20074;-87
2023/06/03 10:08:30;;;;;;;2.25;0.95;;;22.10;59.20;;;-144.05;25.94;56944.41;5082365;28;20032;-84
2023/06/03 10:10:59;;;;;;;4.78;1.27;;;22.30;58.50;;;-144.05;26.34;56929.53;5080914;28;20046;-83
2023/06/03 10:13:27;;;;;;;4.18;1.20;;;22.60;59.30;;;-144.05;26.41;56942.28;5081106;28;20043;-86
2023/06/03 10:15:53;;;;;;;3.60;0.85;;;22.50;58.20;;;-144.05;26.57;56938.03;5080119;28;20048;-88
2023/06/03 10:18:37;;;;;;;2.83;1.02;;;22.50;60.40;;;-144.05;25.91;56955.03;5080931;28;20032;-85